createdAt,value
2023-02-23T00:02:07.451Z,99.90
2023-02-23T00:04:42.183Z,99.90
2023-02-23T00:07:10.571Z,99.90
2023-02-23T00:09:40.423Z,99.90
2023-02-23T00:12:08.397Z,99.90
2023-02-23T00:14:37.965Z,99.90
2023-02-23T00:17:14.391Z,99.90
2023-02-23T00:19:44.028Z,99.90
2023-02-23T00:22:12.095Z,99.90
2023-02-23T00:24:42.428Z,99.90
2023-02-23T00:34:37.266Z,99.90
2023-02-23T00:37:05.200Z,99.90
2023-02-23T00:42:03.485Z,99.90
2023-02-23T01:01:47.290Z,99.90
2023-02-23T01:04:15.068Z,99.90
2023-02-23T01:11:46.993Z,99.90
2023-02-23T01:16:43.806Z,99.90
2023-02-23T01:21:42.296Z,99.90
2023-02-23T01:26:41.806Z,99.90
2023-02-23T01:29:15.014Z,99.90
2023-02-23T01:31:51.417Z,99.90
2023-02-23T01:34:21.839Z,99.90
2023-02-23T01:39:20.179Z,99.90
2023-02-23T01:41:51.949Z,99.90
2023-02-23T01:49:22.853Z,99.90
2023-02-23T01:52:11.537Z,99.90
2023-02-23T01:54:42.887Z,99.90
2023-02-23T01:57:14.578Z,99.90
2023-02-23T01:59:47.030Z,99.90
2023-02-23T02:02:18.075Z,99.90
2023-02-23T02:04:48.797Z,99.90
2023-02-23T02:10:07.943Z,99.90
2023-02-23T02:12:41.930Z,99.90
2023-02-23T02:18:03.522Z,99.90
2023-02-23T02:20:52.618Z,99.90
2023-02-23T02:23:42.252Z,99.90
2023-02-23T02:26:42.039Z,99.90
2023-02-23T02:29:33.165Z,99.90
2023-02-23T02:32:16.688Z,99.90
2023-02-23T02:35:19.733Z,99.90
2023-02-23T02:40:53.685Z,99.90
2023-02-23T02:43:43.764Z,99.90
2023-02-23T02:46:36.967Z,99.90
2023-02-23T02:49:26.942Z,99.90
2023-02-23T02:52:26.595Z,99.90
2023-02-23T02:54:57.731Z,99.90
2023-02-23T02:57:27.976Z,99.90
2023-02-23T03:00:13.557Z,99.90
2023-02-23T03:03:00.434Z,99.90
2023-02-23T03:06:04.230Z,99.90
2023-02-23T03:09:10.807Z,99.90
2023-02-23T03:12:07.749Z,99.90
2023-02-23T03:14:59.747Z,99.90
2023-02-23T03:18:02.303Z,99.90
2023-02-23T03:23:46.542Z,99.90
2023-02-23T03:26:55.357Z,99.90
2023-02-23T03:30:04.327Z,99.90
2023-02-23T03:32:52.891Z,99.90
2023-02-23T03:36:08.450Z,99.90
2023-02-23T03:39:17.130Z,99.90
2023-02-23T03:42:05.189Z,99.90
2023-02-23T03:44:56.547Z,99.90
2023-02-23T03:47:46.433Z,99.90
2023-02-23T03:50:48.433Z,99.90
2023-02-23T03:53:36.971Z,99.90
2023-02-23T03:56:24.520Z,99.90
2023-02-23T03:59:16.260Z,99.90
2023-02-23T04:02:02.690Z,99.90
2023-02-23T04:07:37.299Z,99.90
2023-02-23T04:10:25.065Z,99.90
2023-02-23T04:16:01.388Z,99.90
2023-02-23T04:18:34.257Z,99.90
2023-02-23T04:25:58.924Z,99.90
2023-02-23T04:28:28.196Z,99.90
2023-02-23T04:33:25.701Z,99.90
2023-02-23T04:38:22.599Z,99.90
2023-02-23T04:43:18.137Z,99.90
2023-02-23T04:45:48.810Z,99.90
2023-02-23T04:53:12.357Z,99.90
2023-02-23T04:58:13.716Z,99.90
2023-02-23T05:00:41.835Z,99.90
2023-02-23T05:03:09.473Z,99.90
2023-02-23T05:05:37.066Z,99.90
2023-02-23T05:08:04.924Z,99.90
2023-02-23T05:13:01.205Z,99.90
2023-02-23T05:15:31.605Z,99.90
2023-02-23T05:18:00.173Z,99.90
2023-02-23T05:20:27.818Z,99.90
2023-02-23T05:27:51.074Z,99.90
2023-02-23T05:30:18.871Z,99.90
2023-02-23T05:32:46.470Z,99.90
2023-02-23T05:37:41.873Z,99.90
2023-02-23T05:40:10.196Z,99.90
2023-02-23T05:42:38.587Z,99.90
2023-02-23T05:47:38.664Z,99.90
2023-02-23T05:50:07.975Z,99.90
2023-02-23T05:52:40.744Z,99.90
2023-02-23T05:55:11.636Z,99.90
2023-02-23T05:57:41.190Z,99.90
2023-02-23T06:10:01.466Z,99.90
2023-02-23T06:17:27.482Z,99.90
2023-02-23T06:29:50.520Z,99.90
2023-02-23T06:42:09.896Z,99.90
2023-02-23T06:49:33.995Z,96.70
2023-02-23T06:59:26.821Z,63.00
2023-02-23T07:14:26.204Z,34.00
2023-02-23T07:16:54.848Z,39.50
2023-02-23T07:19:25.067Z,29.80
2023-02-23T07:21:52.558Z,28.40
2023-02-23T07:24:20.262Z,25.10
2023-02-23T07:26:49.501Z,24.30
2023-02-23T07:29:17.515Z,24.20
2023-02-23T07:31:44.977Z,24.00
2023-02-23T07:34:12.886Z,20.50
2023-02-23T07:36:40.672Z,19.70
2023-02-23T07:39:08.422Z,18.40
2023-02-23T07:46:34.613Z,23.50
2023-02-23T07:49:03.009Z,18.00
2023-02-23T07:51:30.649Z,17.40
2023-02-23T07:54:03.492Z,21.60
2023-02-23T08:06:28.884Z,12.70
2023-02-23T08:09:02.463Z,13.50
2023-02-23T08:11:30.328Z,13.90
2023-02-23T08:14:00.281Z,12.70
2023-02-23T08:16:28.997Z,12.30
2023-02-23T08:29:03.100Z,10.60
2023-02-23T08:31:31.120Z,10.70
2023-02-23T08:33:59.706Z,10.90
2023-02-23T08:41:23.068Z,11.60
2023-02-23T08:43:51.035Z,11.80
2023-02-23T08:46:20.618Z,11.30
2023-02-23T08:56:13.480Z,10.20
2023-02-23T08:58:41.217Z,11.40
2023-02-23T09:01:08.934Z,11.40
2023-02-23T09:03:39.225Z,11.80
2023-02-23T09:08:38.921Z,12.70
2023-02-23T09:11:06.714Z,15.10
2023-02-23T09:18:32.755Z,16.60
2023-02-23T09:21:07.541Z,17.80
2023-02-23T09:23:37.570Z,17.70
2023-02-23T09:26:07.195Z,19.90
2023-02-23T09:31:10.671Z,20.00
2023-02-23T09:36:20.390Z,20.20
2023-02-23T09:38:53.298Z,19.30
2023-02-23T09:41:28.289Z,23.60
2023-02-23T09:44:23.059Z,19.80
2023-02-23T09:47:23.487Z,25.30
2023-02-23T09:49:52.670Z,19.90
2023-02-23T09:55:20.422Z,20.70
2023-02-23T09:57:50.152Z,19.30
2023-02-23T10:00:34.235Z,19.40
2023-02-23T10:03:06.683Z,21.70
2023-02-23T10:05:41.393Z,28.10
2023-02-23T10:11:13.782Z,21.30
2023-02-23T10:14:10.757Z,23.20
2023-02-23T10:17:07.877Z,22.80
2023-02-23T10:20:12.104Z,22.10
2023-02-23T10:22:42.021Z,23.80
2023-02-23T10:40:28.988Z,24.90
2023-02-23T10:42:59.273Z,25.50
2023-02-23T10:45:28.651Z,25.30
2023-02-23T10:48:09.641Z,26.90
2023-02-23T10:50:39.475Z,26.10
2023-02-23T10:55:48.096Z,25.20
2023-02-23T10:58:20.952Z,25.20
2023-02-23T11:01:04.130Z,27.20
2023-02-23T11:03:50.037Z,28.10
2023-02-23T11:09:45.685Z,30.80
2023-02-23T11:12:54.668Z,29.10
2023-02-23T11:18:25.396Z,27.60
2023-02-23T11:23:39.182Z,25.00
2023-02-23T11:26:44.064Z,29.20
2023-02-23T11:31:56.148Z,20.30
2023-02-23T11:39:38.903Z,23.80
2023-02-23T11:42:17.597Z,22.30
2023-02-23T11:45:03.442Z,22.90
2023-02-23T11:55:06.597Z,23.50
2023-02-23T11:57:36.824Z,23.60
2023-02-23T12:00:36.479Z,24.40
2023-02-23T12:10:45.346Z,26.00
2023-02-23T12:13:33.970Z,25.70
2023-02-23T12:16:20.419Z,26.10
2023-02-23T12:22:04.654Z,25.10
2023-02-23T12:35:13.264Z,25.60
2023-02-23T12:37:47.408Z,25.90
2023-02-23T12:40:25.289Z,24.30
2023-02-23T12:42:58.965Z,26.40
2023-02-23T12:45:59.818Z,26.60
2023-02-23T12:49:06.982Z,27.00
2023-02-23T12:54:18.892Z,27.50
2023-02-23T12:57:20.146Z,28.30
2023-02-23T13:00:31.531Z,26.70
2023-02-23T13:06:03.672Z,26.80
2023-02-23T13:11:34.519Z,26.30
2023-02-23T13:14:16.189Z,26.90
2023-02-23T13:19:44.976Z,26.30
2023-02-23T13:22:42.639Z,26.40
2023-02-23T13:25:29.483Z,27.10
2023-02-23T13:28:06.059Z,27.60
2023-02-23T13:33:27.486Z,27.80
2023-02-23T13:38:59.898Z,27.40
2023-02-23T13:42:22.788Z,28.90
2023-02-23T13:47:45.691Z,30.30
2023-02-23T13:50:50.895Z,28.50
2023-02-23T13:56:16.278Z,29.90
2023-02-23T13:59:09.609Z,30.10
2023-02-23T14:01:40.712Z,31.50
2023-02-23T14:09:27.019Z,34.00
2023-02-23T14:12:05.933Z,36.00
2023-02-23T14:14:45.868Z,35.80
2023-02-23T14:20:29.678Z,36.00
2023-02-23T14:23:21.465Z,32.60
2023-02-23T14:39:00.953Z,39.10
2023-02-23T14:44:36.988Z,39.30
2023-02-23T14:52:26.268Z,41.50
2023-02-23T14:57:40.243Z,42.10
2023-02-23T15:00:24.803Z,44.40
2023-02-23T15:05:41.597Z,45.60
2023-02-23T15:08:15.528Z,45.70
2023-02-23T15:10:45.671Z,48.70
2023-02-23T15:13:33.215Z,49.60
2023-02-23T15:16:10.637Z,45.20
2023-02-23T15:21:20.041Z,45.10
2023-02-23T15:23:51.631Z,45.80
2023-02-23T15:38:53.321Z,46.50
2023-02-23T15:41:32.526Z,46.20
2023-02-23T15:44:20.152Z,46.10
2023-02-23T15:46:54.913Z,47.60
2023-02-23T15:52:09.972Z,45.70
2023-02-23T15:57:30.762Z,49.40
2023-02-23T16:00:19.085Z,49.10
2023-02-23T16:02:48.984Z,47.80
2023-02-23T16:05:22.927Z,49.60
2023-02-23T16:08:06.308Z,49.80
2023-02-23T16:10:49.912Z,50.50
2023-02-23T16:13:21.897Z,52.10
2023-02-23T16:15:50.566Z,52.30
2023-02-23T16:18:32.629Z,55.20
2023-02-23T16:23:41.770Z,55.30
2023-02-23T16:26:12.420Z,54.40
2023-02-23T16:28:45.781Z,56.40
2023-02-23T16:31:14.551Z,53.70
2023-02-23T16:33:52.114Z,57.00
2023-02-23T16:39:02.452Z,57.30
2023-02-23T16:41:32.207Z,58.80
2023-02-23T16:44:05.624Z,58.50
2023-02-23T16:46:50.716Z,60.10
2023-02-23T16:49:18.399Z,60.60
2023-02-23T16:51:46.758Z,61.20
2023-02-23T16:54:14.317Z,60.60
2023-02-23T16:56:42.266Z,61.50
2023-02-23T16:59:16.360Z,62.20
2023-02-23T17:01:46.657Z,61.20
2023-02-23T17:04:15.453Z,63.00
2023-02-23T17:06:43.897Z,73.10
2023-02-23T17:09:12.807Z,71.60
2023-02-23T17:11:42.445Z,65.70
2023-02-23T17:14:27.697Z,64.00
2023-02-23T17:16:55.896Z,73.80
2023-02-23T17:21:53.670Z,63.90
2023-02-23T17:24:25.995Z,63.40
2023-02-23T17:31:51.161Z,68.80
2023-02-23T17:39:17.159Z,69.80
2023-02-23T17:51:37.347Z,71.80
2023-02-23T17:54:05.022Z,71.10
2023-02-23T18:01:28.721Z,74.20
2023-02-23T18:03:58.668Z,73.60
2023-02-23T18:08:55.380Z,75.20
2023-02-23T18:11:23.822Z,73.60
2023-02-23T18:13:51.505Z,74.70
2023-02-23T18:16:19.524Z,76.10
2023-02-23T18:18:49.103Z,76.40
2023-02-23T18:23:47.670Z,76.80
2023-02-23T18:26:19.422Z,75.50
2023-02-23T18:31:17.988Z,75.40
2023-02-23T18:36:20.997Z,78.80
2023-02-23T18:38:49.353Z,83.30
2023-02-23T18:43:44.680Z,77.40
2023-02-23T18:51:14.183Z,77.80
2023-02-23T18:53:42.318Z,79.10
2023-02-23T18:56:14.276Z,80.00
2023-02-23T18:58:44.723Z,82.00
2023-02-23T19:01:18.191Z,80.70
2023-02-23T19:03:46.792Z,81.80
2023-02-23T19:06:16.197Z,81.90
2023-02-23T19:08:44.767Z,82.90
2023-02-23T19:11:13.057Z,84.30
2023-02-23T19:13:40.608Z,89.50
2023-02-23T19:16:08.745Z,88.70
2023-02-23T19:21:07.045Z,82.60
2023-02-23T19:26:03.451Z,84.30
2023-02-23T19:31:10.894Z,84.90
2023-02-23T19:36:08.943Z,86.00
2023-02-23T19:41:13.619Z,91.20
2023-02-23T19:43:41.317Z,88.70
2023-02-23T19:46:11.389Z,89.60
2023-02-23T19:48:39.098Z,89.90
2023-02-23T19:51:10.263Z,89.90
2023-02-23T19:53:37.992Z,89.90
2023-02-23T19:56:08.705Z,92.30
2023-02-23T19:58:36.407Z,92.40
2023-02-23T20:01:08.973Z,93.40
2023-02-23T20:06:13.440Z,96.50
2023-02-23T20:11:09.009Z,99.90
2023-02-23T20:13:38.634Z,99.90
2023-02-23T20:16:09.167Z,99.90
2023-02-23T20:18:41.425Z,99.90
2023-02-23T20:21:10.399Z,99.90
2023-02-23T20:23:38.046Z,99.90
2023-02-23T20:26:08.231Z,99.90
2023-02-23T20:28:35.728Z,99.90
2023-02-23T20:31:03.839Z,99.90
2023-02-23T20:38:27.523Z,99.90
2023-02-23T20:40:55.034Z,99.90
2023-02-23T20:43:22.650Z,99.90
2023-02-23T20:45:50.496Z,99.90
2023-02-23T20:48:17.925Z,99.90
2023-02-23T20:58:08.529Z,99.90
2023-02-23T21:05:40.335Z,99.90
2023-02-23T21:10:38.400Z,99.90
2023-02-23T21:13:07.394Z,99.90
2023-02-23T21:20:32.907Z,99.90
2023-02-23T21:23:00.506Z,99.90
2023-02-23T21:25:29.176Z,99.90
2023-02-23T21:27:56.788Z,99.90
2023-02-23T21:30:28.531Z,99.90
2023-02-23T21:32:56.767Z,99.90
2023-02-23T21:35:24.769Z,99.90
2023-02-23T21:37:53.392Z,99.90
2023-02-23T21:40:23.353Z,99.90
2023-02-23T21:42:51.383Z,99.90
2023-02-23T21:45:19.481Z,99.90
2023-02-23T21:52:48.579Z,99.90
2023-02-23T21:55:24.662Z,99.90
2023-02-23T21:57:52.405Z,99.90
2023-02-23T22:00:21.861Z,99.90
2023-02-23T22:07:54.103Z,99.90
2023-02-23T22:10:23.898Z,99.90
2023-02-23T22:12:56.323Z,99.90
2023-02-23T22:15:27.230Z,99.90
2023-02-23T22:17:56.209Z,99.90
2023-02-23T22:20:23.625Z,99.90
2023-02-23T22:22:51.104Z,99.90
2023-02-23T22:25:20.281Z,99.90
2023-02-23T22:27:48.210Z,99.90
2023-02-23T22:30:16.103Z,99.90
2023-02-23T22:35:11.973Z,99.90
2023-02-23T22:37:41.093Z,99.90
2023-02-23T22:45:16.596Z,99.90
2023-02-23T22:47:44.615Z,99.90
2023-02-23T22:50:14.139Z,99.90
2023-02-23T22:52:43.147Z,99.90
2023-02-23T22:55:11.191Z,99.90
2023-02-23T22:57:39.915Z,99.90
2023-02-23T23:00:12.652Z,99.90
2023-02-23T23:05:08.949Z,99.90
2023-02-23T23:10:05.879Z,99.90
2023-02-23T23:12:34.570Z,99.90
2023-02-23T23:15:03.234Z,99.90
2023-02-23T23:17:32.361Z,99.90
2023-02-23T23:20:00.658Z,99.90
2023-02-23T23:22:28.924Z,99.90
2023-02-23T23:27:24.912Z,99.90
2023-02-23T23:29:52.578Z,99.90
2023-02-23T23:32:27.507Z,99.90
2023-02-23T23:37:29.236Z,99.90
2023-02-23T23:40:00.081Z,99.90
2023-02-23T23:42:27.674Z,99.90
2023-02-23T23:44:57.067Z,99.90
2023-02-23T23:47:24.751Z,99.90
2023-02-23T23:49:54.535Z,99.90
2023-02-23T23:54:49.677Z,99.90
2023-02-23T23:57:17.454Z,99.90
2023-02-23T23:59:46.335Z,99.90
